Time;durP1;ratioP1;P1;durP2;ratioP2;P2;SDS_P1;SDS_P2;PMS_P1;PMS_P2;Temp;Humidity;BMP_temperature;BMP_pressure;BME280_temperature;BME280_humidity;BME280_pressure;Samples;Min_cycle;Max_cycle;Signal;HPM_P1;HPM_P2
2021/04/29 00:01:02;;;;;;;13.63;10.00;;;;;;;;;;731581;186;2115594;-74
2021/04/29 00:03:28;;;;;;;17.50;12.13;;;;;;;;;;746046;186;917724;-75
2021/04/29 00:05:54;;;;;;;22.00;13.87;;;;;;;;;;750003;182;918716;-73
2021/04/29 00:08:19;;;;;;;18.95;13.27;;;;;;;;;;758753;182;918621;-74
2021/04/29 00:10:46;;;;;;;20.60;12.97;;;;;;;;;;761690;181;814888;-76
2021/04/29 00:13:11;;;;;;;24.67;13.13;;;;;;;;;;748907;182;2251490;-74
2021/04/29 00:15:37;;;;;;;22.50;14.90;;;;;;;;;;754213;182;831491;-75
2021/04/29 00:18:03;;;;;;;22.83;12.40;;;;;;;;;;760714;181;816444;-74
2021/04/29 00:20:29;;;;;;;21.03;12.77;;;;;;;;;;761617;181;861344;-75
2021/04/29 00:22:55;;;;;;;22.57;12.30;;;;;;;;;;750978;185;918904;-74
2021/04/29 00:25:21;;;;;;;20.63;13.73;;;;;;;;;;750317;185;918338;-73
2021/04/29 00:27:47;;;;;;;25.50;14.23;;;;;;;;;;747746;185;918186;-74
2021/04/29 00:30:13;;;;;;;23.80;14.80;;;;;;;;;;747426;185;882531;-74
2021/04/29 00:32:39;;;;;;;18.60;9.67;;;;;;;;;;759468;182;918955;-71
2021/04/29 00:35:05;;;;;;;20.95;13.93;;;;;;;;;;761372;182;919074;-72
2021/04/29 00:37:31;;;;;;;18.58;11.40;;;;;;;;;;752828;182;919667;-75
2021/04/29 00:39:56;;;;;;;25.33;14.70;;;;;;;;;;758064;182;919026;-73
2021/04/29 00:42:22;;;;;;;24.73;16.60;;;;;;;;;;753895;182;815939;-74
2021/04/29 00:44:48;;;;;;;28.30;16.80;;;;;;;;;;748272;184;815413;-74
2021/04/29 00:47:14;;;;;;;20.57;14.07;;;;;;;;;;742407;185;1001187;-73
2021/04/29 00:49:40;;;;;;;28.60;18.00;;;;;;;;;;736488;186;918992;-74
2021/04/29 00:52:07;;;;;;;23.83;15.90;;;;;;;;;;746439;184;918132;-75
2021/04/29 00:54:33;;;;;;;23.77;15.10;;;;;;;;;;741467;185;633687;-75
2021/04/29 00:56:58;;;;;;;21.15;14.23;;;;;;;;;;745144;185;936048;-74
2021/04/29 00:59:24;;;;;;;23.07;15.33;;;;;;;;;;748948;185;918643;-76
2021/04/29 01:01:50;;;;;;;26.60;14.77;;;;;;;;;;744571;186;918865;-74
2021/04/29 01:04:20;;;;;;;21.80;13.90;;;;;;;;;;758473;182;911086;-74
2021/04/29 01:06:46;;;;;;;24.67;15.07;;;;;;;;;;761177;181;918107;-75
2021/04/29 01:09:12;;;;;;;22.73;14.30;;;;;;;;;;761289;182;700264;-76
2021/04/29 01:11:37;;;;;;;23.70;15.00;;;;;;;;;;754627;182;915507;-75
2021/04/29 01:14:03;;;;;;;22.77;15.30;;;;;;;;;;749992;182;918706;-75
2021/04/29 01:16:29;;;;;;;23.40;14.90;;;;;;;;;;761382;182;919854;-75
2021/04/29 01:18:55;;;;;;;24.33;14.90;;;;;;;;;;752693;182;899447;-74
2021/04/29 01:21:21;;;;;;;26.23;17.13;;;;;;;;;;742054;185;1010763;-72
2021/04/29 01:24:03;;;;;;;21.40;15.17;;;;;;;;;;749961;186;714850;-73
2021/04/29 01:26:40;;;;;;;27.57;15.40;;;;;;;;;;744206;185;2096163;-74
2021/04/29 01:29:06;;;;;;;22.43;14.33;;;;;;;;;;751796;184;822534;-75
2021/04/29 01:31:32;;;;;;;21.47;14.70;;;;;;;;;;755226;181;634563;-74
2021/04/29 01:33:58;;;;;;;23.25;17.12;;;;;;;;;;740458;186;1023445;-76
2021/04/29 01:36:23;;;;;;;26.37;16.63;;;;;;;;;;761319;182;811923;-76
2021/04/29 01:38:50;;;;;;;24.77;14.32;;;;;;;;;;749242;182;814172;-76
2021/04/29 01:41:16;;;;;;;31.20;16.60;;;;;;;;;;741928;186;918087;-75
2021/04/29 01:43:42;;;;;;;28.33;16.67;;;;;;;;;;746091;185;1123000;-75
2021/04/29 01:46:08;;;;;;;23.27;16.50;;;;;;;;;;754454;184;818217;-76
2021/04/29 01:48:34;;;;;;;24.80;16.60;;;;;;;;;;747846;185;873135;-76
2021/04/29 01:51:00;;;;;;;25.50;16.48;;;;;;;;;;743284;185;915792;-75
2021/04/29 01:53:26;;;;;;;29.87;18.50;;;;;;;;;;749175;186;916667;-75
2021/04/29 01:55:51;;;;;;;27.30;17.00;;;;;;;;;;753396;182;1018387;-75
2021/04/29 01:58:17;;;;;;;21.20;16.90;;;;;;;;;;753084;182;921033;-76
2021/04/29 02:00:43;;;;;;;28.30;18.17;;;;;;;;;;762104;182;816215;-76
2021/04/29 02:03:09;;;;;;;24.87;16.80;;;;;;;;;;758758;181;763669;-75
2021/04/29 02:05:35;;;;;;;22.03;15.50;;;;;;;;;;752686;182;910621;-76
2021/04/29 02:08:01;;;;;;;25.77;17.60;;;;;;;;;;763295;182;816167;-76
2021/04/29 02:10:26;;;;;;;24.60;16.93;;;;;;;;;;756184;182;909363;-76
2021/04/29 02:12:52;;;;;;;26.70;17.70;;;;;;;;;;753646;182;886057;-76
2021/04/29 02:15:20;;;;;;;22.37;14.35;;;;;;;;;;743603;182;4617856;-76
2021/04/29 02:17:45;;;;;;;18.83;11.97;;;;;;;;;;757454;184;921212;-75
2021/04/29 02:20:11;;;;;;;17.83;13.27;;;;;;;;;;755961;182;918419;-76
2021/04/29 02:22:37;;;;;;;18.93;12.30;;;;;;;;;;744957;186;919067;-76
2021/04/29 02:25:03;;;;;;;20.37;11.67;;;;;;;;;;761626;182;918467;-77
2021/04/29 02:27:29;;;;;;;17.00;12.30;;;;;;;;;;754737;182;918416;-77
2021/04/29 02:29:55;;;;;;;17.20;11.00;;;;;;;;;;760040;181;919821;-75
2021/04/29 02:32:21;;;;;;;25.00;15.00;;;;;;;;;;757597;181;1021898;-77
2021/04/29 02:34:46;;;;;;;31.00;18.27;;;;;;;;;;757940;182;885712;-77
2021/04/29 02:37:12;;;;;;;40.20;18.53;;;;;;;;;;754921;181;926529;-79
2021/04/29 02:39:38;;;;;;;44.80;20.83;;;;;;;;;;756395;182;918831;-77
2021/04/29 02:42:04;;;;;;;42.60;23.30;;;;;;;;;;750862;181;815038;-77
2021/04/29 02:44:30;;;;;;;42.10;23.53;;;;;;;;;;757991;182;919205;-79
2021/04/29 02:46:56;;;;;;;49.63;25.33;;;;;;;;;;754626;181;919047;-78
2021/04/29 02:49:23;;;;;;;49.50;24.83;;;;;;;;;;755509;182;920015;-79
2021/04/29 02:51:47;;;;;;;42.13;22.67;;;;;;;;;;746426;185;919554;-78
2021/04/29 02:54:13;;;;;;;52.35;24.15;;;;;;;;;;753054;182;918737;-79
2021/04/29 02:56:39;;;;;;;45.90;23.43;;;;;;;;;;748501;185;892413;-78
2021/04/29 02:59:05;;;;;;;37.87;22.20;;;;;;;;;;739121;186;919135;-79
2021/04/29 03:01:31;;;;;;;43.30;22.50;;;;;;;;;;755535;182;919018;-80
2021/04/29 03:03:57;;;;;;;43.60;21.67;;;;;;;;;;755860;182;918206;-76
2021/04/29 03:06:23;;;;;;;38.67;21.60;;;;;;;;;;758427;184;1020354;-79
2021/04/29 03:08:51;;;;;;;42.80;24.57;;;;;;;;;;745583;182;919178;-79
2021/04/29 03:11:16;;;;;;;41.03;22.00;;;;;;;;;;736992;186;918884;-78
2021/04/29 03:13:42;;;;;;;43.93;23.07;;;;;;;;;;753625;185;705771;-78
2021/04/29 03:16:08;;;;;;;42.10;21.50;;;;;;;;;;746969;186;907877;-78
2021/04/29 03:18:34;;;;;;;31.48;19.40;;;;;;;;;;755308;182;810695;-78
2021/04/29 03:21:00;;;;;;;40.10;21.23;;;;;;;;;;763609;182;920770;-79
2021/04/29 03:23:26;;;;;;;35.80;21.33;;;;;;;;;;755131;181;1303191;-79
2021/04/29 03:25:51;;;;;;;41.47;20.70;;;;;;;;;;751635;182;1030660;-77
2021/04/29 03:28:18;;;;;;;40.10;20.62;;;;;;;;;;750090;181;917031;-76
2021/04/29 03:30:44;;;;;;;39.50;22.33;;;;;;;;;;757607;183;903262;-78
2021/04/29 03:33:13;;;;;;;34.37;19.93;;;;;;;;;;743780;184;919024;-77
2021/04/29 03:35:39;;;;;;;38.40;22.10;;;;;;;;;;744077;186;915033;-77
2021/04/29 03:38:05;;;;;;;41.80;22.73;;;;;;;;;;760605;183;919174;-78
2021/04/29 03:40:31;;;;;;;36.60;20.40;;;;;;;;;;740425;186;919038;-78
2021/04/29 03:42:56;;;;;;;42.70;21.90;;;;;;;;;;747550;186;902706;-78
2021/04/29 03:45:22;;;;;;;47.07;21.00;;;;;;;;;;750599;185;1042511;-78
2021/04/29 03:47:48;;;;;;;39.13;22.00;;;;;;;;;;745339;186;784022;-77
2021/04/29 03:50:14;;;;;;;42.47;22.97;;;;;;;;;;756546;182;815195;-77
2021/04/29 03:52:40;;;;;;;36.13;22.30;;;;;;;;;;757171;183;937216;-77
2021/04/29 03:55:06;;;;;;;42.43;21.97;;;;;;;;;;760433;183;918730;-77
2021/04/29 03:57:32;;;;;;;33.97;20.30;;;;;;;;;;751903;182;919293;-77
2021/04/29 03:59:58;;;;;;;35.53;19.77;;;;;;;;;;745663;185;1016850;-77
2021/04/29 04:02:24;;;;;;;43.57;20.10;;;;;;;;;;752073;185;919019;-78
2021/04/29 04:04:50;;;;;;;39.60;19.93;;;;;;;;;;749172;185;919977;-76
2021/04/29 04:07:17;;;;;;;36.13;21.02;;;;;;;;;;750961;182;919060;-77
2021/04/29 04:09:43;;;;;;;37.63;19.70;;;;;;;;;;763982;181;633632;-78
2021/04/29 04:12:09;;;;;;;40.53;21.17;;;;;;;;;;755424;183;919078;-77
2021/04/29 04:14:35;;;;;;;51.43;25.80;;;;;;;;;;757272;181;918859;-77
2021/04/29 04:17:01;;;;;;;42.77;21.93;;;;;;;;;;759001;181;643245;-77
2021/04/29 04:19:26;;;;;;;31.17;19.60;;;;;;;;;;751884;185;815982;-77
2021/04/29 04:21:52;;;;;;;37.70;19.87;;;;;;;;;;743413;185;914642;-77
2021/04/29 04:24:18;;;;;;;36.00;20.97;;;;;;;;;;730422;188;1026814;-77
2021/04/29 04:26:44;;;;;;;37.30;20.77;;;;;;;;;;748482;185;921356;-78
2021/04/29 04:29:10;;;;;;;47.40;22.00;;;;;;;;;;761021;182;918773;-78
2021/04/29 04:31:36;;;;;;;45.83;24.97;;;;;;;;;;752542;182;1047848;-75
2021/04/29 04:34:02;;;;;;;52.27;27.93;;;;;;;;;;760975;182;918099;-78
2021/04/29 04:36:27;;;;;;;53.33;29.00;;;;;;;;;;751553;182;919306;-77
2021/04/29 04:38:53;;;;;;;51.83;26.12;;;;;;;;;;755420;182;919521;-76
2021/04/29 04:41:19;;;;;;;63.53;30.57;;;;;;;;;;755669;182;936873;-78
2021/04/29 04:43:45;;;;;;;50.20;27.13;;;;;;;;;;755349;182;919106;-77
2021/04/29 04:46:11;;;;;;;36.27;22.70;;;;;;;;;;754238;181;816158;-76
2021/04/29 04:48:37;;;;;;;40.08;21.98;;;;;;;;;;756165;182;919389;-77
2021/04/29 04:51:03;;;;;;;42.60;21.43;;;;;;;;;;761828;182;918507;-78
2021/04/29 04:53:28;;;;;;;43.33;21.87;;;;;;;;;;754152;182;918272;-77
2021/04/29 04:55:54;;;;;;;37.93;20.90;;;;;;;;;;746292;184;871692;-77
2021/04/29 04:58:20;;;;;;;34.53;21.17;;;;;;;;;;745749;184;920361;-78
2021/04/29 05:00:48;;;;;;;38.30;20.27;;;;;;;;;;746927;185;924883;-77
2021/04/29 05:03:12;;;;;;;34.63;20.23;;;;;;;;;;742774;186;916146;-78
2021/04/29 05:05:40;;;;;;;43.90;24.00;;;;;;;;;;762108;180;917158;-77
2021/04/29 05:08:06;;;;;;;44.03;28.07;;;;;;;;;;757525;182;919419;-77
2021/04/29 05:10:31;;;;;;;42.30;22.97;;;;;;;;;;755187;182;816872;-78
2021/04/29 05:12:57;;;;;;;44.83;24.10;;;;;;;;;;737853;182;2754718;-76
2021/04/29 05:15:23;;;;;;;52.07;25.70;;;;;;;;;;763679;181;906177;-73
2021/04/29 05:17:49;;;;;;;54.80;28.17;;;;;;;;;;748933;182;836376;-72
2021/04/29 05:20:15;;;;;;;53.20;27.73;;;;;;;;;;760112;181;918757;-76
2021/04/29 05:22:41;;;;;;;46.73;27.17;;;;;;;;;;751982;185;816983;-74
2021/04/29 05:25:07;;;;;;;53.10;25.50;;;;;;;;;;744081;185;919105;-75
2021/04/29 05:27:33;;;;;;;47.40;24.63;;;;;;;;;;738172;185;918834;-77
2021/04/29 05:29:59;;;;;;;46.60;27.27;;;;;;;;;;743436;186;904327;-74
2021/04/29 05:32:25;;;;;;;45.67;24.67;;;;;;;;;;745168;185;1018208;-76
2021/04/29 05:34:51;;;;;;;42.97;26.90;;;;;;;;;;738978;186;919167;-77
2021/04/29 05:37:16;;;;;;;59.73;28.13;;;;;;;;;;738005;186;1234666;-77
2021/04/29 05:39:42;;;;;;;44.00;24.87;;;;;;;;;;743587;187;720498;-76
2021/04/29 05:42:08;;;;;;;62.10;29.10;;;;;;;;;;747688;184;919255;-77
2021/04/29 05:44:34;;;;;;;53.40;26.03;;;;;;;;;;743323;186;816566;-77
2021/04/29 05:47:00;;;;;;;60.13;29.70;;;;;;;;;;750159;186;918608;-76
2021/04/29 05:49:26;;;;;;;49.40;25.53;;;;;;;;;;746677;184;630696;-76
2021/04/29 05:51:52;;;;;;;52.43;25.87;;;;;;;;;;746170;186;919833;-74
2021/04/29 05:54:17;;;;;;;48.07;25.30;;;;;;;;;;757308;182;816146;-77
2021/04/29 05:56:43;;;;;;;50.97;25.27;;;;;;;;;;759353;182;807444;-72
2021/04/29 05:59:09;;;;;;;48.07;23.70;;;;;;;;;;747500;182;1697103;-76
2021/04/29 06:01:35;;;;;;;49.20;23.50;;;;;;;;;;760202;182;817786;-75
2021/04/29 06:04:03;;;;;;;42.40;24.90;;;;;;;;;;754507;182;1020630;-74
2021/04/29 06:06:29;;;;;;;52.13;25.23;;;;;;;;;;755751;182;869230;-76
2021/04/29 06:08:55;;;;;;;46.90;24.47;;;;;;;;;;748994;182;815394;-75
2021/04/29 06:11:21;;;;;;;48.27;25.20;;;;;;;;;;744657;186;918822;-74
2021/04/29 06:13:47;;;;;;;46.60;25.67;;;;;;;;;;760638;181;919632;-71
2021/04/29 06:16:14;;;;;;;46.57;23.40;;;;;;;;;;747680;184;781021;-72
2021/04/29 06:18:38;;;;;;;44.53;24.80;;;;;;;;;;761064;181;918866;-73
2021/04/29 06:21:04;;;;;;;39.80;22.60;;;;;;;;;;757008;182;1137281;-73
2021/04/29 06:23:32;;;;;;;48.43;22.87;;;;;;;;;;756290;182;914781;-73
2021/04/29 06:25:56;;;;;;;42.90;23.57;;;;;;;;;;762917;181;801509;-72
2021/04/29 06:28:22;;;;;;;37.30;22.10;;;;;;;;;;745211;185;917657;-75
2021/04/29 06:30:47;;;;;;;39.50;22.10;;;;;;;;;;738587;185;914940;-73
2021/04/29 06:33:13;;;;;;;49.43;21.10;;;;;;;;;;753060;185;908179;-75
2021/04/29 06:35:40;;;;;;;52.63;22.80;;;;;;;;;;747269;184;817086;-72
2021/04/29 06:38:06;;;;;;;41.80;21.73;;;;;;;;;;759191;182;916134;-74
2021/04/29 06:40:32;;;;;;;41.63;22.37;;;;;;;;;;758022;182;913589;-75
2021/04/29 06:42:58;;;;;;;36.23;22.13;;;;;;;;;;753640;185;919221;-77
2021/04/29 06:45:24;;;;;;;35.10;21.42;;;;;;;;;;745871;185;818200;-75
2021/04/29 06:47:50;;;;;;;41.77;21.77;;;;;;;;;;759071;182;909980;-74
2021/04/29 06:50:17;;;;;;;42.20;22.17;;;;;;;;;;762933;182;624447;-76
2021/04/29 06:52:42;;;;;;;37.73;19.80;;;;;;;;;;752986;182;628100;-75
2021/04/29 06:55:08;;;;;;;44.33;20.10;;;;;;;;;;758925;182;618367;-73
2021/04/29 06:57:34;;;;;;;41.13;20.27;;;;;;;;;;754393;182;918564;-72
2021/04/29 06:59:59;;;;;;;42.20;21.97;;;;;;;;;;749402;183;918954;-75
2021/04/29 07:02:25;;;;;;;42.67;21.63;;;;;;;;;;747793;185;902097;-73
2021/04/29 07:04:51;;;;;;;45.33;22.23;;;;;;;;;;739173;186;916713;-76
2021/04/29 07:07:17;;;;;;;40.70;21.60;;;;;;;;;;747801;186;1226262;-74
2021/04/29 07:09:43;;;;;;;46.73;20.50;;;;;;;;;;746537;185;918849;-75
2021/04/29 07:12:09;;;;;;;39.80;20.27;;;;;;;;;;753350;184;613958;-75
2021/04/29 07:14:35;;;;;;;37.43;20.60;;;;;;;;;;743972;186;918543;-74
2021/04/29 07:17:00;;;;;;;40.83;20.77;;;;;;;;;;740884;186;919125;-73
2021/04/29 07:19:26;;;;;;;38.77;19.27;;;;;;;;;;750549;182;1020875;-73
2021/04/29 07:21:52;;;;;;;44.30;24.00;;;;;;;;;;766457;182;916254;-73
2021/04/29 07:24:18;;;;;;;37.27;20.70;;;;;;;;;;741641;185;813351;-73
2021/04/29 07:26:44;;;;;;;41.40;20.90;;;;;;;;;;744287;185;918252;-72
2021/04/29 07:29:10;;;;;;;48.50;23.80;;;;;;;;;;747198;185;1097211;-74
2021/04/29 07:31:35;;;;;;;36.20;20.83;;;;;;;;;;754717;185;916274;-73
2021/04/29 07:34:01;;;;;;;34.53;20.70;;;;;;;;;;743030;186;923281;-74
2021/04/29 07:36:28;;;;;;;41.70;20.42;;;;;;;;;;761850;182;917535;-73
2021/04/29 07:38:53;;;;;;;38.43;20.93;;;;;;;;;;758236;182;870697;-72
2021/04/29 07:41:23;;;;;;;41.60;20.77;;;;;;;;;;746079;183;900608;-73
2021/04/29 07:43:45;;;;;;;35.10;20.07;;;;;;;;;;746648;186;918391;-72
2021/04/29 07:46:10;;;;;;;39.63;20.80;;;;;;;;;;745607;186;918819;-71
2021/04/29 07:48:36;;;;;;;38.23;22.07;;;;;;;;;;743479;185;1087934;-75
2021/04/29 07:51:02;;;;;;;37.45;20.12;;;;;;;;;;741441;185;822692;-73
2021/04/29 07:53:28;;;;;;;35.53;18.50;;;;;;;;;;761709;182;816247;-77
2021/04/29 07:55:54;;;;;;;39.13;21.27;;;;;;;;;;745769;184;918594;-74
2021/04/29 07:58:20;;;;;;;47.27;20.27;;;;;;;;;;749278;182;918390;-75
2021/04/29 08:00:46;;;;;;;42.00;21.97;;;;;;;;;;748307;185;815789;-74
2021/04/29 08:03:11;;;;;;;36.23;21.10;;;;;;;;;;750085;185;918298;-74
2021/04/29 08:05:37;;;;;;;34.87;20.33;;;;;;;;;;743955;185;918334;-71
2021/04/29 08:08:03;;;;;;;35.60;21.03;;;;;;;;;;761281;182;919342;-73
2021/04/29 08:10:29;;;;;;;41.83;20.43;;;;;;;;;;761518;182;629223;-73
2021/04/29 08:12:55;;;;;;;43.17;18.90;;;;;;;;;;758030;183;816210;-73
2021/04/29 08:15:21;;;;;;;38.13;22.67;;;;;;;;;;755133;182;919469;-74
2021/04/29 08:17:47;;;;;;;43.20;23.23;;;;;;;;;;759247;182;918421;-76
2021/04/29 08:20:13;;;;;;;40.30;19.63;;;;;;;;;;755710;182;816837;-76
2021/04/29 08:22:39;;;;;;;41.47;20.90;;;;;;;;;;754619;182;919014;-74
2021/04/29 08:25:05;;;;;;;42.80;21.30;;;;;;;;;;750094;182;924465;-72
2021/04/29 08:27:32;;;;;;;34.73;20.27;;;;;;;;;;763800;181;918197;-72
2021/04/29 08:29:57;;;;;;;37.63;22.90;;;;;;;;;;755617;182;918312;-73
2021/04/29 08:32:23;;;;;;;37.78;20.15;;;;;;;;;;739842;185;918724;-73
2021/04/29 08:34:49;;;;;;;39.37;19.30;;;;;;;;;;746739;186;626935;-73
2021/04/29 08:37:16;;;;;;;32.77;20.80;;;;;;;;;;743279;186;918530;-71
2021/04/29 08:39:40;;;;;;;37.10;18.93;;;;;;;;;;747168;185;632542;-74
2021/04/29 08:42:07;;;;;;;29.07;18.20;;;;;;;;;;750925;185;915882;-71
2021/04/29 08:44:33;;;;;;;38.30;19.50;;;;;;;;;;757406;182;914878;-71
2021/04/29 08:46:58;;;;;;;34.50;20.13;;;;;;;;;;757187;182;914293;-72
2021/04/29 08:49:24;;;;;;;41.07;20.57;;;;;;;;;;755843;182;916908;-71
2021/04/29 08:51:51;;;;;;;33.53;17.40;;;;;;;;;;759227;182;974079;-75
2021/04/29 08:54:16;;;;;;;33.87;18.30;;;;;;;;;;755750;181;813768;-71
2021/04/29 08:56:42;;;;;;;35.97;18.90;;;;;;;;;;750718;182;1403465;-73
2021/04/29 08:59:08;;;;;;;35.97;20.53;;;;;;;;;;766607;182;915485;-72
2021/04/29 09:01:37;;;;;;;30.00;19.70;;;;;;;;;;742373;185;919047;-72
2021/04/29 09:04:09;;;;;;;31.27;16.93;;;;;;;;;;744455;185;1015901;-75
2021/04/29 09:06:35;;;;;;;35.77;17.80;;;;;;;;;;737870;184;919529;-73
2021/04/29 09:09:01;;;;;;;36.60;20.40;;;;;;;;;;748102;184;919575;-72
2021/04/29 09:11:27;;;;;;;31.40;18.50;;;;;;;;;;756185;182;915460;-70
2021/04/29 09:13:53;;;;;;;34.77;19.33;;;;;;;;;;757376;181;908574;-69
2021/04/29 09:16:19;;;;;;;39.23;16.40;;;;;;;;;;760933;182;918922;-69
2021/04/29 09:18:45;;;;;;;31.97;17.97;;;;;;;;;;746650;182;919051;-70
2021/04/29 09:21:14;;;;;;;32.10;18.93;;;;;;;;;;757615;182;917523;-71
2021/04/29 09:23:39;;;;;;;34.70;20.23;;;;;;;;;;753249;182;969105;-73
2021/04/29 09:26:05;;;;;;;33.23;19.73;;;;;;;;;;749877;185;918223;-71
2021/04/29 09:28:32;;;;;;;39.63;19.87;;;;;;;;;;744810;185;919461;-72
2021/04/29 09:31:00;;;;;;;34.00;20.77;;;;;;;;;;740943;185;920620;-72
2021/04/29 09:33:31;;;;;;;40.40;20.70;;;;;;;;;;746124;185;617180;-72
2021/04/29 09:35:56;;;;;;;37.60;17.00;;;;;;;;;;748632;186;631108;-71
2021/04/29 09:38:22;;;;;;;36.00;20.87;;;;;;;;;;746017;185;629673;-74
2021/04/29 09:40:49;;;;;;;39.00;20.83;;;;;;;;;;742612;185;918324;-71
2021/04/29 09:43:14;;;;;;;33.77;19.93;;;;;;;;;;744678;184;1531785;-72
2021/04/29 09:45:40;;;;;;;37.57;21.27;;;;;;;;;;741127;186;919428;-72
2021/04/29 09:48:06;;;;;;;32.40;19.40;;;;;;;;;;752422;182;917958;-71
2021/04/29 09:50:32;;;;;;;34.97;18.20;;;;;;;;;;760116;182;923901;-69
2021/04/29 09:53:00;;;;;;;34.70;20.97;;;;;;;;;;759096;181;918987;-72
2021/04/29 09:55:26;;;;;;;37.00;21.27;;;;;;;;;;757647;182;927390;-71
2021/04/29 09:57:55;;;;;;;37.40;20.13;;;;;;;;;;762243;182;918345;-71
2021/04/29 10:00:21;;;;;;;33.17;19.27;;;;;;;;;;751864;180;914661;-71
2021/04/29 10:02:46;;;;;;;33.90;18.23;;;;;;;;;;741722;186;919190;-72
2021/04/29 10:05:12;;;;;;;34.00;18.97;;;;;;;;;;748985;182;943223;-69
2021/04/29 10:07:38;;;;;;;34.07;17.83;;;;;;;;;;759733;182;918800;-70
2021/04/29 10:10:04;;;;;;;34.27;18.73;;;;;;;;;;746143;182;918925;-71
2021/04/29 10:12:30;;;;;;;29.02;15.57;;;;;;;;;;752277;182;1022929;-74
2021/04/29 10:14:57;;;;;;;33.33;18.17;;;;;;;;;;759635;182;916071;-71
2021/04/29 10:17:22;;;;;;;30.33;19.73;;;;;;;;;;758230;183;620132;-71
2021/04/29 10:19:49;;;;;;;27.80;15.80;;;;;;;;;;760007;182;633468;-72
2021/04/29 10:22:15;;;;;;;30.73;18.12;;;;;;;;;;759583;182;915936;-71
2021/04/29 10:24:41;;;;;;;31.80;16.93;;;;;;;;;;741390;183;1924854;-73
2021/04/29 10:27:07;;;;;;;32.63;18.80;;;;;;;;;;748569;182;862829;-72
2021/04/29 10:32:28;;;;;;;38.17;20.87;;;;;;;;;;785314;172;26496;-83
2021/04/29 10:34:54;;;;;;;32.40;18.73;;;;;;;;;;769847;181;688438;-88
2021/04/29 10:37:20;;;;;;;30.80;16.30;;;;;;;;;;776277;180;624685;-89
2021/04/29 10:39:56;;;;;;;32.80;18.70;;;;;;;;;;766232;179;634981;-88
2021/04/29 10:42:22;;;;;;;32.63;18.17;;;;;;;;;;772880;180;667702;-88
2021/04/29 10:44:48;;;;;;;32.03;18.00;;;;;;;;;;775105;179;669902;-86
2021/04/29 10:47:20;;;;;;;31.73;19.33;;;;;;;;;;765952;180;628505;-89
2021/04/29 10:49:46;;;;;;;34.50;18.83;;;;;;;;;;769219;179;630540;-89
2021/04/29 10:52:12;;;;;;;34.37;19.83;;;;;;;;;;769796;179;1059004;-89
2021/04/29 10:54:37;;;;;;;29.10;17.63;;;;;;;;;;770821;179;629176;-88
2021/04/29 10:57:04;;;;;;;31.67;16.97;;;;;;;;;;765269;179;670417;-88
2021/04/29 10:59:36;;;;;;;30.40;16.83;;;;;;;;;;771871;180;657116;-90
2021/04/29 11:02:02;;;;;;;29.30;16.27;;;;;;;;;;766423;179;653652;-88
2021/04/29 11:04:28;;;;;;;26.97;15.97;;;;;;;;;;781258;179;619448;-87
2021/04/29 11:06:54;;;;;;;28.27;17.63;;;;;;;;;;764498;180;705289;-88
2021/04/29 11:09:19;;;;;;;25.40;16.57;;;;;;;;;;774719;179;633011;-89
2021/04/29 11:11:45;;;;;;;30.80;17.03;;;;;;;;;;765772;178;2708677;-88
2021/04/29 11:14:12;;;;;;;28.20;16.30;;;;;;;;;;752720;183;685204;-89
2021/04/29 11:16:42;;;;;;;30.93;17.40;;;;;;;;;;766464;179;741071;-90
2021/04/29 11:19:08;;;;;;;25.73;15.60;;;;;;;;;;770483;179;650671;-89
2021/04/29 11:21:34;;;;;;;20.90;13.30;;;;;;;;;;776518;180;628955;-89
2021/04/29 11:24:00;;;;;;;27.23;14.30;;;;;;;;;;769498;179;638110;-89
2021/04/29 11:26:26;;;;;;;23.50;14.40;;;;;;;;;;772376;179;674512;-88
2021/04/29 11:28:51;;;;;;;27.80;15.57;;;;;;;;;;773977;179;615217;-88
2021/04/29 11:31:18;;;;;;;24.63;16.67;;;;;;;;;;770587;179;731059;-88
2021/04/29 11:33:45;;;;;;;23.70;14.00;;;;;;;;;;746421;180;4668640;-84
2021/04/29 11:36:15;;;;;;;26.70;15.10;;;;;;;;;;776980;178;618622;-87
2021/04/29 11:38:47;;;;;;;21.27;15.30;;;;;;;;;;767807;179;645024;-85
2021/04/29 11:41:13;;;;;;;20.03;13.33;;;;;;;;;;770591;180;692987;-86
2021/04/29 11:43:39;;;;;;;22.13;12.87;;;;;;;;;;763877;180;636452;-88
2021/04/29 11:46:04;;;;;;;22.60;13.62;;;;;;;;;;766033;180;641992;-87
2021/04/29 11:48:33;;;;;;;26.20;14.60;;;;;;;;;;765575;179;630844;-88
2021/04/29 11:50:59;;;;;;;23.65;15.32;;;;;;;;;;768022;179;663315;-87
2021/04/29 11:53:27;;;;;;;23.50;13.67;;;;;;;;;;772940;179;631085;-89
2021/04/29 11:55:55;;;;;;;26.93;14.20;;;;;;;;;;772399;179;650875;-85
2021/04/29 11:58:21;;;;;;;23.33;13.73;;;;;;;;;;770534;179;727752;-87
2021/04/29 12:00:47;;;;;;;26.93;16.47;;;;;;;;;;770833;181;741667;-87
2021/04/29 12:03:13;;;;;;;23.87;14.63;;;;;;;;;;774036;179;626587;-84
2021/04/29 12:05:39;;;;;;;27.20;14.30;;;;;;;;;;771459;181;642670;-87
2021/04/29 12:08:16;;;;;;;20.90;13.97;;;;;;;;;;774726;179;649389;-87
2021/04/29 12:10:42;;;;;;;20.73;13.43;;;;;;;;;;772225;179;629600;-87
2021/04/29 12:13:08;;;;;;;24.63;13.40;;;;;;;;;;775048;180;626795;-85
2021/04/29 12:15:34;;;;;;;31.20;16.43;;;;;;;;;;770244;180;618560;-88
2021/04/29 12:18:00;;;;;;;27.63;13.00;;;;;;;;;;777303;180;657194;-84
2021/04/29 12:20:26;;;;;;;22.10;13.90;;;;;;;;;;772908;179;659837;-83
2021/04/29 12:22:52;;;;;;;26.37;14.40;;;;;;;;;;768119;182;615091;-85
2021/04/29 12:25:19;;;;;;;25.03;12.33;;;;;;;;;;763639;180;642762;-86
2021/04/29 12:27:45;;;;;;;27.00;15.30;;;;;;;;;;767946;181;685016;-83
2021/04/29 12:30:11;;;;;;;22.67;14.37;;;;;;;;;;766719;180;625071;-84
2021/04/29 12:32:37;;;;;;;21.63;12.90;;;;;;;;;;745633;187;689294;-86
2021/04/29 12:35:03;;;;;;;23.67;14.50;;;;;;;;;;768936;179;762139;-85
2021/04/29 12:37:29;;;;;;;23.27;14.07;;;;;;;;;;772202;179;624855;-84
2021/04/29 12:39:55;;;;;;;18.30;12.63;;;;;;;;;;741269;186;1222027;-84
2021/04/29 12:42:21;;;;;;;18.43;11.97;;;;;;;;;;773766;179;638246;-87
2021/04/29 12:44:47;;;;;;;17.08;11.25;;;;;;;;;;771614;180;630643;-86
2021/04/29 12:47:13;;;;;;;21.57;10.80;;;;;;;;;;765062;180;1581747;-87
2021/04/29 12:49:38;;;;;;;16.87;10.83;;;;;;;;;;746767;184;633236;-85
2021/04/29 12:52:04;;;;;;;22.60;12.53;;;;;;;;;;770826;179;626591;-86
2021/04/29 12:54:30;;;;;;;19.83;12.43;;;;;;;;;;770298;177;655770;-85
2021/04/29 12:56:56;;;;;;;20.80;13.00;;;;;;;;;;771015;180;682741;-89
2021/04/29 12:59:23;;;;;;;22.08;13.90;;;;;;;;;;773059;180;657497;-88
2021/04/29 13:01:49;;;;;;;20.80;11.53;;;;;;;;;;773079;179;869632;-85
2021/04/29 13:04:18;;;;;;;21.97;12.17;;;;;;;;;;770758;181;633580;-85
2021/04/29 13:06:44;;;;;;;21.70;14.23;;;;;;;;;;772468;180;766907;-87
2021/04/29 13:09:10;;;;;;;23.80;13.87;;;;;;;;;;765614;180;643766;-87
2021/04/29 13:11:37;;;;;;;21.33;13.17;;;;;;;;;;774087;179;763144;-85
2021/04/29 13:14:04;;;;;;;24.40;14.57;;;;;;;;;;762019;180;619897;-86
2021/04/29 13:16:30;;;;;;;29.33;15.37;;;;;;;;;;770895;178;686556;-85
2021/04/29 13:18:56;;;;;;;26.27;14.87;;;;;;;;;;772490;179;616345;-86
2021/04/29 13:21:22;;;;;;;32.60;16.00;;;;;;;;;;765016;179;844640;-85
2021/04/29 13:23:48;;;;;;;23.73;14.17;;;;;;;;;;766592;179;1022139;-86
2021/04/29 13:26:15;;;;;;;27.60;16.13;;;;;;;;;;776331;179;766347;-89
2021/04/29 13:28:41;;;;;;;25.90;13.90;;;;;;;;;;774846;179;714525;-85
2021/04/29 13:31:06;;;;;;;26.17;15.50;;;;;;;;;;773519;178;819197;-85
2021/04/29 13:33:32;;;;;;;26.20;15.27;;;;;;;;;;771604;179;710625;-85
2021/04/29 13:35:58;;;;;;;22.90;13.60;;;;;;;;;;776202;179;628341;-88
2021/04/29 13:38:24;;;;;;;21.93;13.27;;;;;;;;;;767745;180;627735;-86
2021/04/29 13:40:50;;;;;;;20.93;13.20;;;;;;;;;;768811;179;638704;-87
2021/04/29 13:43:16;;;;;;;20.27;11.83;;;;;;;;;;772945;180;629691;-83
2021/04/29 13:45:45;;;;;;;19.40;11.80;;;;;;;;;;775628;180;634074;-86
2021/04/29 13:48:08;;;;;;;19.50;12.97;;;;;;;;;;751286;180;3003435;-85
2021/04/29 13:50:34;;;;;;;24.93;14.43;;;;;;;;;;772525;179;668435;-86
2021/04/29 13:53:00;;;;;;;21.00;13.20;;;;;;;;;;740222;188;622921;-87
2021/04/29 13:55:25;;;;;;;24.40;14.30;;;;;;;;;;771270;179;623831;-85
2021/04/29 13:57:51;;;;;;;16.97;10.53;;;;;;;;;;772294;179;625396;-89
2021/04/29 14:00:17;;;;;;;23.90;10.10;;;;;;;;;;770256;180;788023;-88